Time;durP1;ratioP1;P1;durP2;ratioP2;P2;SDS_P1;SDS_P2;PMS_P1;PMS_P2;Temp;Humidity;BMP_temperature;BMP_pressure;BME280_temperature;BME280_humidity;BME280_pressure;Samples;Min_cycle;Max_cycle;Signal;HPM_P1;HPM_P2
2023/10/02 00:00:31;;;;;;;25.63;21.17;;;;;22.10;101006.00;;;;2546863;23;20189;-57
2023/10/02 00:01:33;;;;;;;28.47;21.10;;;;;22.10;101007.00;;;;2553608;23;20194;-57
2023/10/02 00:02:42;;;;;;;27.13;20.70;;;;;22.10;101007.00;;;;2537881;23;20563;-57
2023/10/02 00:03:44;;;;;;;26.08;20.17;;;;;22.10;101013.00;;;;2553799;23;20200;-56
2023/10/02 00:04:45;;;;;;;25.90;20.25;;;;;22.10;101007.00;;;;2553260;23;20277;-57
2023/10/02 00:05:51;;;;;;;25.15;19.88;;;;;22.10;101007.00;;;;2553520;23;20198;-57
2023/10/02 00:07:05;;;;;;;23.42;20.02;;;;;22.10;101020.00;;;;2538315;23;20236;-57
2023/10/02 00:08:05;;;;;;;23.38;18.50;;;;;22.10;101013.00;;;;2553441;23;20271;-57
2023/10/02 00:09:06;;;;;;;25.40;19.70;;;;;22.10;101010.00;;;;2552977;23;20202;-57
2023/10/02 00:10:07;;;;;;;24.30;18.50;;;;;22.10;101010.00;;;;2553564;23;20231;-57
2023/10/02 00:11:35;;;;;;;26.63;20.35;;;;;22.10;101003.00;;;;2553703;23;20205;-57
2023/10/02 00:12:34;;;;;;;25.08;19.80;;;;;22.10;101016.00;;;;2528657;23;20198;-57
2023/10/02 00:13:34;;;;;;;21.83;17.50;;;;;22.10;101009.00;;;;2528341;23;20268;-57
2023/10/02 00:14:35;;;;;;;24.53;18.70;;;;;22.10;101003.00;;;;2528067;23;20237;-58
2023/10/02 00:15:36;;;;;;;23.80;18.20;;;;;22.10;101007.00;;;;2541191;23;20228;-57
2023/10/02 00:16:37;;;;;;;21.53;17.93;;;;;22.10;101004.00;;;;2526916;23;20715;-59
2023/10/02 00:17:37;;;;;;;21.37;18.30;;;;;22.10;101010.00;;;;2541904;23;20864;-57
2023/10/02 00:18:38;;;;;;;22.47;18.37;;;;;22.10;101011.00;;;;2540091;23;20519;-57
2023/10/02 00:19:44;;;;;;;24.00;17.50;;;;;22.10;101009.00;;;;2540533;23;20201;-57
2023/10/02 00:20:44;;;;;;;23.10;17.85;;;;;22.10;101050.00;;;;2540640;23;20198;-57
2023/10/02 00:21:45;;;;;;;23.30;17.97;;;;;22.10;101016.00;;;;2525944;23;20218;-57
2023/10/02 00:22:46;;;;;;;23.55;17.60;;;;;22.10;101013.00;;;;2541202;23;20198;-57
2023/10/02 00:24:07;;;;;;;23.02;18.75;;;;;22.10;101014.00;;;;2540945;23;20268;-57
2023/10/02 00:25:19;;;;;;;21.77;17.00;;;;;22.10;101014.00;;;;2539542;23;20201;-58
2023/10/02 00:26:19;;;;;;;24.50;18.17;;;;;22.10;101013.00;;;;2539637;23;20209;-57
2023/10/02 00:27:21;;;;;;;20.43;16.20;;;;;22.10;101011.00;;;;2524690;23;20952;-57
2023/10/02 00:28:30;;;;;;;20.40;15.82;;;;;22.10;101016.00;;;;2540823;23;20205;-57
2023/10/02 00:29:31;;;;;;;20.10;16.65;;;;;22.10;101018.00;;;;2540883;23;20537;-57
2023/10/02 00:30:36;;;;;;;20.10;16.60;;;;;22.10;101015.00;;;;2540718;23;20199;-58
2023/10/02 00:31:38;;;;;;;20.73;16.85;;;;;22.10;101013.00;;;;2527595;23;20661;-58
2023/10/02 00:32:40;;;;;;;22.23;17.48;;;;;21.50;101019.00;;;;2539948;23;20509;-58
2023/10/02 00:33:41;;;;;;;19.50;15.15;;;;;22.10;101016.00;;;;2540655;23;20241;-57
2023/10/02 00:34:41;;;;;;;21.57;16.33;;;;;22.10;101019.00;;;;2540404;23;20252;-57
2023/10/02 00:35:50;;;;;;;19.87;15.70;;;;;22.10;101019.00;;;;2540576;23;20205;-58
2023/10/02 00:36:51;;;;;;;17.23;15.38;;;;;22.10;101015.00;;;;2526762;23;20194;-57
2023/10/02 00:37:52;;;;;;;19.25;15.73;;;;;22.10;101010.00;;;;2540837;23;20214;-57
2023/10/02 00:38:52;;;;;;;21.93;16.20;;;;;22.10;101012.00;;;;2541227;23;20198;-57
2023/10/02 00:39:52;;;;;;;18.27;15.03;;;;;22.10;100837.00;;;;2540803;23;20200;-58
2023/10/02 00:40:53;;;;;;;19.77;15.40;;;;;22.10;101010.00;;;;2541335;23;20528;-57
2023/10/02 00:42:38;;;;;;;19.27;15.27;;;;;22.10;101006.00;;;;2526442;23;20202;-57
2023/10/02 00:45:59;;;;;;;18.02;13.98;;;;;22.10;101017.00;;;;2541303;23;20193;-57
2023/10/02 00:47:00;;;;;;;18.20;15.00;;;;;22.10;101039.00;;;;2530607;23;20228;-57
2023/10/02 00:49:25;;;;;;;18.00;14.93;;;;;22.10;101012.00;;;;2531640;23;20775;-57
2023/10/02 00:50:25;;;;;;;16.63;14.43;;;;;22.10;101008.00;;;;2541309;23;20198;-57
2023/10/02 00:51:27;;;;;;;17.60;13.97;;;;;22.10;101000.00;;;;2528147;23;20201;-60
2023/10/02 00:52:27;;;;;;;19.10;14.75;;;;;22.10;101006.00;;;;2512945;23;20215;-59
2023/10/02 00:53:46;;;;;;;15.82;13.20;;;;;22.10;100999.00;;;;2541346;23;20209;-57
2023/10/02 00:54:47;;;;;;;17.85;13.80;;;;;22.10;101000.00;;;;2540135;23;20210;-57
2023/10/02 00:55:47;;;;;;;17.97;14.83;;;;;22.10;101005.00;;;;2530336;23;20524;-57
2023/10/02 00:56:47;;;;;;;16.60;13.87;;;;;22.10;101003.00;;;;2525643;23;20947;-57
2023/10/02 00:57:50;;;;;;;18.70;14.70;;;;;22.10;101003.00;;;;2541175;23;20644;-57
2023/10/02 00:58:55;;;;;;;18.70;14.60;;;;;22.10;100996.00;;;;2539430;23;20217;-57
2023/10/02 00:59:59;;;;;;;18.83;14.13;;;;;22.10;100998.00;;;;2540146;23;20226;-60
2023/10/02 01:01:01;;;;;;;18.60;14.50;;;;;22.10;100999.00;;;;2540604;23;20278;-58
2023/10/02 01:02:05;;;;;;;16.73;13.00;;;;;22.10;101000.00;;;;2529658;23;20268;-58
2023/10/02 01:03:08;;;;;;;16.60;13.38;;;;;22.10;101009.00;;;;2527752;23;20226;-57
2023/10/02 01:04:13;;;;;;;16.63;12.85;;;;;22.10;101009.00;;;;2528840;23;20902;-57
2023/10/02 01:05:30;;;;;;;17.27;13.90;;;;;22.10;100993.00;;;;2540900;23;20224;-58
2023/10/02 01:06:33;;;;;;;16.38;12.35;;;;;22.10;101041.00;;;;2521997;23;20276;-59
2023/10/02 01:07:33;;;;;;;15.73;13.32;;;;;22.10;100994.00;;;;2504559;23;20706;-59
2023/10/02 01:08:42;;;;;;;18.10;11.90;;;;;22.10;100997.00;;;;2539259;23;20206;-57
2023/10/02 01:10:06;;;;;;;19.45;13.57;;;;;22.10;101001.00;;;;2540428;23;20214;-58
2023/10/02 01:11:03;;;;;;;16.35;12.85;;;;;22.10;100993.00;;;;2538078;23;20194;-58
2023/10/02 01:12:05;;;;;;;17.03;11.80;;;;;22.20;100994.00;;;;2515771;23;20225;-57
2023/10/02 01:13:05;;;;;;;16.25;13.48;;;;;22.10;100967.00;;;;2527407;23;20234;-58
2023/10/02 01:14:06;;;;;;;17.60;12.60;;;;;22.10;100996.00;;;;2516232;23;20195;-58
2023/10/02 01:15:09;;;;;;;16.70;12.03;;;;;22.10;101000.00;;;;2518291;23;20412;-58
2023/10/02 01:16:09;;;;;;;18.88;12.75;;;;;22.10;101003.00;;;;2528442;23;20265;-57
2023/10/02 01:17:10;;;;;;;16.93;11.50;;;;;22.10;100990.00;;;;2527060;23;20258;-58
2023/10/02 01:18:22;;;;;;;17.87;13.27;;;;;22.10;100997.00;;;;2527367;23;20244;-58
2023/10/02 01:19:24;;;;;;;16.10;12.70;;;;;22.10;101004.00;;;;2517987;23;20195;-57
2023/10/02 01:20:33;;;;;;;15.95;11.85;;;;;22.10;101001.00;;;;2515310;23;20200;-57
2023/10/02 01:21:33;;;;;;;14.95;11.40;;;;;22.10;100999.00;;;;2519882;23;20199;-57
2023/10/02 01:22:38;;;;;;;15.87;11.40;;;;;22.10;101003.00;;;;2514105;23;20634;-57
2023/10/02 01:24:10;;;;;;;18.02;11.18;;;;;22.10;100999.00;;;;2529133;23;20713;-58
2023/10/02 01:25:14;;;;;;;18.38;11.50;;;;;22.10;101005.00;;;;2543864;23;20190;-57
2023/10/02 01:26:16;;;;;;;14.13;10.85;;;;;22.10;101006.00;;;;2539825;23;20539;-57
2023/10/02 01:27:22;;;;;;;15.50;11.27;;;;;22.10;101006.00;;;;2514070;23;20311;-57
2023/10/02 01:28:29;;;;;;;15.68;12.02;;;;;22.10;101005.00;;;;2529285;23;20217;-58
2023/10/02 01:29:29;;;;;;;16.67;11.20;;;;;22.10;100999.00;;;;2540145;23;20229;-56
2023/10/02 01:30:30;;;;;;;15.83;10.87;;;;;22.10;101000.00;;;;2532619;23;20301;-56
2023/10/02 01:31:44;;;;;;;14.53;10.67;;;;;22.10;100996.00;;;;2538754;23;20285;-57
2023/10/02 01:33:14;;;;;;;17.73;10.27;;;;;22.10;100990.00;;;;2552291;23;20519;-56
2023/10/02 01:35:35;;;;;;;14.50;10.55;;;;;22.10;100995.00;;;;2538096;23;20672;-58
2023/10/02 01:36:39;;;;;;;14.48;10.25;;;;;22.10;101038.00;;;;2527449;23;20202;-58
2023/10/02 01:37:46;;;;;;;15.52;10.70;;;;;22.10;101041.00;;;;2528107;23;20286;-58
2023/10/02 01:38:47;;;;;;;11.70;9.80;;;;;22.10;100996.00;;;;2526011;23;20191;-58
2023/10/02 01:39:47;;;;;;;13.50;10.40;;;;;22.10;100999.00;;;;2540634;23;20194;-57
2023/10/02 01:40:49;;;;;;;14.30;10.20;;;;;22.10;100994.00;;;;2540330;23;20198;-55
2023/10/02 01:41:52;;;;;;;14.95;10.73;;;;;22.10;100994.00;;;;2526155;23;20277;-54
2023/10/02 01:42:52;;;;;;;14.65;10.52;;;;;22.10;100996.00;;;;2537051;23;20585;-55
2023/10/02 01:43:55;;;;;;;13.90;9.93;;;;;22.10;100994.00;;;;2538791;23;20234;-55
2023/10/02 01:44:55;;;;;;;14.15;10.07;;;;;22.10;100991.00;;;;2528295;23;20199;-55
2023/10/02 01:46:00;;;;;;;12.70;9.87;;;;;22.10;100994.00;;;;2539690;23;20237;-55
2023/10/02 01:47:04;;;;;;;15.10;10.05;;;;;22.10;100987.00;;;;2526408;23;20580;-55
2023/10/02 01:48:08;;;;;;;13.55;10.30;;;;;22.10;100991.00;;;;2539313;23;20256;-55
2023/10/02 01:49:24;;;;;;;14.73;10.32;;;;;22.10;100988.00;;;;2540170;23;20198;-55
2023/10/02 01:50:24;;;;;;;13.05;9.27;;;;;22.10;100992.00;;;;2540559;23;20244;-55
2023/10/02 01:51:27;;;;;;;15.90;10.83;;;;;22.10;101053.00;;;;2541243;23;20660;-55
2023/10/02 01:52:28;;;;;;;14.00;10.07;;;;;22.10;100996.00;;;;2525585;23;20201;-55
2023/10/02 01:53:31;;;;;;;12.47;8.80;;;;;22.10;100990.00;;;;2540411;23;20205;-56
2023/10/02 01:54:31;;;;;;;12.27;9.57;;;;;22.10;100986.00;;;;2540842;23;20193;-55
2023/10/02 01:55:35;;;;;;;12.23;9.27;;;;;22.10;100995.00;;;;2540184;23;20211;-56
2023/10/02 01:56:35;;;;;;;15.73;9.75;;;;;22.10;100992.00;;;;2525741;23;20190;-55
2023/10/02 01:57:36;;;;;;;11.97;9.30;;;;;22.10;100990.00;;;;2540555;23;20205;-56
2023/10/02 01:58:40;;;;;;;12.83;9.60;;;;;22.10;100986.00;;;;2538335;23;20612;-57
2023/10/02 01:59:40;;;;;;;14.60;10.23;;;;;22.10;100982.00;;;;2540474;23;20225;-56
2023/10/02 02:00:42;;;;;;;11.87;9.13;;;;;22.10;101014.00;;;;2541287;23;20847;-56
2023/10/02 02:01:57;;;;;;;16.17;10.35;;;;;22.10;100984.00;;;;2528558;23;20198;-56
2023/10/02 02:03:17;;;;;;;11.07;8.23;;;;;22.10;100986.00;;;;2541591;23;20260;-55
2023/10/02 02:04:19;;;;;;;13.90;9.20;;;;;22.10;100986.00;;;;2541649;23;20193;-55
2023/10/02 02:05:19;;;;;;;14.45;9.45;;;;;22.10;100993.00;;;;2542466;23;20193;-55
2023/10/02 02:06:23;;;;;;;12.93;9.50;;;;;22.10;100983.00;;;;2541680;23;21204;-55
2023/10/02 02:07:23;;;;;;;11.82;8.50;;;;;22.10;100978.00;;;;2527754;23;20226;-56
2023/10/02 02:08:24;;;;;;;13.33;9.73;;;;;22.10;100976.00;;;;2542556;23;20201;-55
2023/10/02 02:09:30;;;;;;;11.33;8.70;;;;;22.10;100976.00;;;;2541674;23;20194;-56
2023/10/02 02:10:32;;;;;;;12.20;9.00;;;;;22.10;100975.00;;;;2540760;23;20202;-60
2023/10/02 02:11:34;;;;;;;12.48;8.73;;;;;22.10;100978.00;;;;2541120;23;20272;-55
2023/10/02 02:12:44;;;;;;;11.82;8.13;;;;;22.10;100974.00;;;;2532881;23;20220;-56
2023/10/02 02:13:55;;;;;;;14.18;9.32;;;;;22.10;100980.00;;;;2540838;23;20280;-56
2023/10/02 02:14:56;;;;;;;12.00;8.20;;;;;22.10;100980.00;;;;2541643;23;20194;-56
2023/10/02 02:16:07;;;;;;;11.35;8.00;;;;;22.10;100982.00;;;;2541851;23;20198;-56
2023/10/02 02:17:10;;;;;;;12.20;8.90;;;;;22.10;100984.00;;;;2528452;23;20260;-56
2023/10/02 02:18:10;;;;;;;12.60;8.43;;;;;22.10;100977.00;;;;2542411;23;20194;-55
2023/10/02 02:19:12;;;;;;;10.60;7.70;;;;;22.00;100985.00;;;;2541624;23;20197;-57
2023/10/02 02:20:43;;;;;;;12.25;7.70;;;;;22.10;100984.00;;;;2536434;23;20198;-56
2023/10/02 02:21:32;;;;;;;10.98;7.60;;;;;22.10;100985.00;;;;2539804;23;20245;-56
2023/10/02 02:22:33;;;;;;;12.10;8.33;;;;;22.00;100984.00;;;;2527354;23;20588;-56
2023/10/02 02:23:35;;;;;;;12.13;7.72;;;;;22.10;100972.00;;;;2538123;23;20241;-56
2023/10/02 02:24:38;;;;;;;10.73;7.93;;;;;22.00;100976.00;;;;2541817;23;20265;-55
2023/10/02 02:25:38;;;;;;;12.65;8.50;;;;;22.00;100968.00;;;;2541896;23;20265;-56
2023/10/02 02:26:41;;;;;;;10.17;8.03;;;;;22.00;100971.00;;;;2528189;23;20316;-56
2023/10/02 02:27:46;;;;;;;11.02;7.45;;;;;22.10;100977.00;;;;2539355;23;20532;-57
2023/10/02 02:28:51;;;;;;;11.50;7.70;;;;;22.10;100968.00;;;;2541838;23;20190;-56
2023/10/02 02:29:56;;;;;;;11.60;8.00;;;;;22.10;100974.00;;;;2542203;23;20590;-56
2023/10/02 02:30:57;;;;;;;12.20;8.65;;;;;22.00;100978.00;;;;2542046;23;20201;-56
2023/10/02 02:31:57;;;;;;;11.50;7.57;;;;;22.00;100980.00;;;;2531342;23;20201;-55
2023/10/02 02:33:00;;;;;;;11.27;8.13;;;;;22.00;100979.00;;;;2549721;23;20201;-56
2023/10/02 02:34:09;;;;;;;11.73;8.15;;;;;22.00;100984.00;;;;2545512;23;20222;-56
2023/10/02 02:35:13;;;;;;;13.25;7.47;;;;;22.00;100983.00;;;;2541953;23;20213;-56
2023/10/02 02:36:14;;;;;;;11.65;6.55;;;;;22.00;100971.00;;;;2541741;23;20194;-56
2023/10/02 02:37:15;;;;;;;9.40;7.13;;;;;22.00;100968.00;;;;2526892;23;20193;-56
2023/10/02 02:38:15;;;;;;;13.93;7.45;;;;;22.00;100978.00;;;;2554431;23;20567;-56
2023/10/02 02:39:17;;;;;;;11.10;7.60;;;;;22.00;100978.00;;;;2554724;23;20272;-56
2023/10/02 02:40:27;;;;;;;11.18;7.63;;;;;22.00;100982.00;;;;2553487;23;20189;-56
2023/10/02 02:41:29;;;;;;;11.80;8.32;;;;;22.00;100983.00;;;;2554580;23;20640;-56
2023/10/02 02:42:30;;;;;;;12.18;8.13;;;;;22.00;100976.00;;;;2536480;23;20253;-56
2023/10/02 02:43:30;;;;;;;9.97;7.50;;;;;22.00;100978.00;;;;2554026;23;20535;-56
2023/10/02 02:44:39;;;;;;;11.23;7.77;;;;;22.00;100978.00;;;;2550892;23;20534;-56
2023/10/02 02:45:41;;;;;;;11.07;7.50;;;;;22.10;100970.00;;;;2554562;23;20670;-56
2023/10/02 02:46:53;;;;;;;10.93;7.03;;;;;22.00;100974.00;;;;2539270;23;20197;-56
2023/10/02 02:48:07;;;;;;;11.00;8.00;;;;;22.00;100982.00;;;;2553883;23;20204;-56
2023/10/02 02:49:11;;;;;;;10.75;7.45;;;;;22.00;100972.00;;;;2552069;23;20231;-56
2023/10/02 02:50:14;;;;;;;10.93;7.55;;;;;22.10;100977.00;;;;2539295;23;20702;-56
2023/10/02 02:51:15;;;;;;;10.80;7.40;;;;;22.00;100975.00;;;;2553555;23;20782;-56
2023/10/02 02:52:26;;;;;;;11.00;6.90;;;;;22.00;100971.00;;;;2538663;23;20197;-56
2023/10/02 02:53:30;;;;;;;11.73;8.27;;;;;22.00;100968.00;;;;2552090;23;20248;-56
2023/10/02 02:54:30;;;;;;;10.90;7.45;;;;;22.00;100970.00;;;;2554046;23;20586;-56
2023/10/02 02:55:31;;;;;;;10.20;7.67;;;;;22.00;100968.00;;;;2553921;23;20276;-56
2023/10/02 02:56:31;;;;;;;9.90;7.03;;;;;22.00;100967.00;;;;2553913;23;20208;-56
2023/10/02 02:57:33;;;;;;;10.70;7.97;;;;;22.00;100967.00;;;;2539628;23;20263;-56
2023/10/02 02:58:35;;;;;;;9.63;7.05;;;;;22.00;100971.00;;;;2554044;23;20267;-56
2023/10/02 02:59:38;;;;;;;10.05;7.15;;;;;22.00;100965.00;;;;2554127;23;20193;-59
2023/10/02 03:00:39;;;;;;;11.93;7.57;;;;;22.00;100969.00;;;;2552912;23;20193;-55
2023/10/02 03:01:40;;;;;;;10.53;7.13;;;;;22.00;100966.00;;;;2527102;23;20838;-56
2023/10/02 03:02:41;;;;;;;9.95;7.25;;;;;22.00;100961.00;;;;2540945;23;20434;-55
2023/10/02 03:03:42;;;;;;;11.67;7.97;;;;;22.00;100962.00;;;;2553990;23;20197;-56
2023/10/02 03:04:43;;;;;;;10.70;7.33;;;;;22.00;101009.00;;;;2553243;23;20201;-56
2023/10/02 03:05:43;;;;;;;10.13;7.40;;;;;22.00;100964.00;;;;2554103;23;20433;-56
2023/10/02 03:06:44;;;;;;;9.53;6.73;;;;;22.00;100954.00;;;;2539394;23;20628;-56
2023/10/02 03:07:44;;;;;;;10.57;6.83;;;;;22.00;100963.00;;;;2540904;23;20201;-56
2023/10/02 03:08:45;;;;;;;10.20;7.30;;;;;22.00;100963.00;;;;2539868;23;20194;-56
2023/10/02 03:09:45;;;;;;;11.97;7.77;;;;;22.00;100964.00;;;;2541178;23;20242;-56
2023/10/02 03:10:46;;;;;;;10.87;7.47;;;;;22.00;100963.00;;;;2537347;23;20209;-56
2023/10/02 03:11:46;;;;;;;11.80;7.87;;;;;22.00;100960.00;;;;2538891;23;20247;-56
2023/10/02 03:12:47;;;;;;;10.27;6.90;;;;;22.00;100966.00;;;;2552891;23;20512;-56
2023/10/02 03:13:48;;;;;;;9.23;6.68;;;;;22.00;100961.00;;;;2554066;23;20197;-56
2023/10/02 03:14:51;;;;;;;10.52;6.90;;;;;22.00;100961.00;;;;2553367;23;20198;-56
2023/10/02 03:15:53;;;;;;;9.75;6.60;;;;;22.00;100953.00;;;;2551390;23;20232;-56
2023/10/02 03:16:54;;;;;;;9.90;7.35;;;;;22.00;100960.00;;;;2539049;23;20272;-56
2023/10/02 03:17:58;;;;;;;10.77;6.97;;;;;22.00;100934.00;;;;2553150;23;20515;-56
2023/10/02 03:19:03;;;;;;;8.73;6.90;;;;;22.00;100959.00;;;;2528420;23;20195;-56
2023/10/02 03:20:21;;;;;;;9.32;7.18;;;;;22.00;100963.00;;;;2530393;23;20568;-56
2023/10/02 03:21:23;;;;;;;10.50;6.97;;;;;22.00;100962.00;;;;2541482;23;20257;-55
2023/10/02 03:22:24;;;;;;;10.48;7.13;;;;;22.00;100958.00;;;;2526084;23;20276;-56
2023/10/02 03:23:28;;;;;;;10.03;6.67;;;;;22.00;100957.00;;;;2541672;23;20580;-56
2023/10/02 03:24:28;;;;;;;11.40;7.45;;;;;22.00;100958.00;;;;2540908;23;20421;-56
2023/10/02 03:25:28;;;;;;;10.43;6.60;;;;;22.00;100955.00;;;;2538774;23;20205;-56
2023/10/02 03:27:36;;;;;;;8.93;6.93;;;;;22.00;100954.00;;;;2531251;23;20281;-56
2023/10/02 03:28:39;;;;;;;8.80;6.18;;;;;22.00;100950.00;;;;2541588;23;20190;-56
2023/10/02 03:29:39;;;;;;;10.10;6.95;;;;;22.00;100949.00;;;;2539703;23;20233;-57
2023/10/02 03:30:39;;;;;;;10.73;6.97;;;;;22.00;100952.00;;;;2528355;23;20253;-56
2023/10/02 03:31:43;;;;;;;9.33;6.77;;;;;22.00;100951.00;;;;2525496;23;20209;-56
2023/10/02 03:32:45;;;;;;;8.63;6.20;;;;;22.00;100958.00;;;;2553103;23;20268;-56
2023/10/02 03:33:45;;;;;;;13.00;6.55;;;;;22.00;100943.00;;;;2553578;23;20209;-55
2023/10/02 03:35:02;;;;;;;8.27;5.90;;;;;22.00;100945.00;;;;2550585;23;20207;-56
2023/10/02 03:36:07;;;;;;;9.07;7.05;;;;;22.00;100955.00;;;;2551595;23;20193;-56
2023/10/02 03:38:08;;;;;;;9.03;6.60;;;;;22.00;100954.00;;;;2552885;23;20321;-55
2023/10/02 03:39:23;;;;;;;11.10;6.80;;;;;22.00;100947.00;;;;2550228;23;20577;-55
2023/10/02 03:40:25;;;;;;;10.27;7.20;;;;;22.00;100952.00;;;;2553147;23;20200;-56
2023/10/02 03:41:44;;;;;;;9.27;6.90;;;;;22.00;100949.00;;;;2552963;23;20629;-55
2023/10/02 03:42:48;;;;;;;10.82;7.28;;;;;22.00;100951.00;;;;2535812;23;20256;-56
2023/10/02 03:43:49;;;;;;;8.75;5.82;;;;;22.00;100948.00;;;;2539965;23;20533;-56
2023/10/02 03:44:50;;;;;;;10.80;7.35;;;;;22.00;100945.00;;;;2541716;23;20241;-55
2023/10/02 03:45:51;;;;;;;11.20;6.63;;;;;22.00;100943.00;;;;2541209;23;20799;-56
2023/10/02 03:46:53;;;;;;;10.13;6.75;;;;;22.00;100952.00;;;;2527526;23;20932;-55
2023/10/02 03:48:02;;;;;;;9.73;7.03;;;;;22.00;100963.00;;;;2540413;23;20209;-55
2023/10/02 03:49:04;;;;;;;9.18;6.03;;;;;22.00;100935.00;;;;2541713;23;20260;-56
2023/10/02 03:50:10;;;;;;;9.82;6.47;;;;;22.00;100939.00;;;;2541496;23;20629;-56
2023/10/02 03:51:10;;;;;;;12.30;6.72;;;;;22.00;100935.00;;;;2541151;23;20206;-56
2023/10/02 03:52:14;;;;;;;9.40;6.93;;;;;22.00;100938.00;;;;2512661;23;20462;-59
2023/10/02 03:53:28;;;;;;;9.00;6.78;;;;;22.00;100938.00;;;;2540705;23;20248;-56
2023/10/02 03:54:29;;;;;;;9.23;6.55;;;;;22.00;100935.00;;;;2540171;23;20951;-56
2023/10/02 03:55:33;;;;;;;8.95;6.50;;;;;22.00;100942.00;;;;2540918;23;20230;-55
2023/10/02 03:56:36;;;;;;;10.00;7.20;;;;;22.00;100933.00;;;;2541570;23;20205;-55
2023/10/02 03:57:54;;;;;;;9.98;6.72;;;;;22.00;100932.00;;;;2549719;23;20193;-56
2023/10/02 03:58:55;;;;;;;9.80;6.65;;;;;22.00;100930.00;;;;2544059;23;20216;-56
2023/10/02 03:59:56;;;;;;;10.47;6.93;;;;;22.00;100932.00;;;;2540066;23;20209;-55
2023/10/02 04:00:57;;;;;;;9.13;6.53;;;;;22.00;100929.00;;;;2541431;23;20282;-56
2023/10/02 04:02:24;;;;;;;11.37;7.40;;;;;22.00;100933.00;;;;2526351;23;20811;-55
2023/10/02 04:03:18;;;;;;;8.18;6.10;;;;;22.00;100928.00;;;;2540397;23;20194;-56
2023/10/02 04:04:21;;;;;;;10.07;6.50;;;;;22.00;100928.00;;;;2538627;23;20194;-56
2023/10/02 04:05:42;;;;;;;10.60;6.70;;;;;22.00;100927.00;;;;2541134;23;20197;-56
2023/10/02 04:06:43;;;;;;;9.13;6.70;;;;;22.00;100917.00;;;;2521108;23;20214;-56
2023/10/02 04:07:47;;;;;;;10.07;6.83;;;;;22.00;100922.00;;;;2540638;23;20222;-56
2023/10/02 04:08:47;;;;;;;9.90;6.90;;;;;22.00;100925.00;;;;2540875;23;20198;-57
2023/10/02 04:09:49;;;;;;;10.23;6.77;;;;;22.00;100918.00;;;;2540722;23;20198;-56
2023/10/02 04:10:57;;;;;;;8.77;6.03;;;;;22.00;100922.00;;;;2541275;23;20202;-56
2023/10/02 04:11:57;;;;;;;9.38;6.45;;;;;22.00;100923.00;;;;2526205;23;20198;-56
2023/10/02 04:13:00;;;;;;;9.13;6.43;;;;;22.00;100914.00;;;;2528323;23;20931;-56
2023/10/02 04:14:00;;;;;;;9.18;6.32;;;;;22.00;100921.00;;;;2528218;23;20214;-55
2023/10/02 04:15:04;;;;;;;10.43;6.80;;;;;22.00;100920.00;;;;2541208;23;20297;-56
2023/10/02 04:17:25;;;;;;;10.02;6.32;;;;;22.00;100918.00;;;;2526998;23;20198;-55
2023/10/02 04:19:49;;;;;;;10.15;6.65;;;;;22.00;100912.00;;;;2546590;23;20587;-56
2023/10/02 04:20:51;;;;;;;10.00;6.50;;;;;22.00;100915.00;;;;2540762;23;20198;-56
2023/10/02 04:21:52;;;;;;;9.00;6.18;;;;;22.00;100911.00;;;;2524589;23;20206;-55
2023/10/02 04:23:18;;;;;;;8.90;6.47;;;;;22.00;100921.00;;;;2539610;23;20209;-56
2023/10/02 04:24:23;;;;;;;11.35;6.20;;;;;22.00;100915.00;;;;2539961;23;20741;-56
2023/10/02 04:25:25;;;;;;;10.30;6.47;;;;;22.00;100916.00;;;;2541678;23;20198;-56
2023/10/02 04:26:28;;;;;;;9.05;5.72;;;;;22.00;100912.00;;;;2540636;23;20217;-56
2023/10/02 04:28:54;;;;;;;9.35;6.00;;;;;22.00;100917.00;;;;2533930;23;20198;-56
2023/10/02 04:31:20;;;;;;;9.20;6.50;;;;;22.00;100907.00;;;;2527584;23;20534;-56
2023/10/02 04:32:24;;;;;;;7.70;5.75;;;;;22.00;100913.00;;;;2515042;23;20198;-56
2023/10/02 04:33:24;;;;;;;10.27;6.80;;;;;22.00;100911.00;;;;2540866;23;20198;-56
2023/10/02 04:34:29;;;;;;;8.90;6.07;;;;;22.00;100906.00;;;;2540527;23;20553;-56
2023/10/02 04:35:44;;;;;;;8.27;6.03;;;;;22.00;100905.00;;;;2540324;23;20277;-56
2023/10/02 04:36:44;;;;;;;9.60;6.22;;;;;22.00;100909.00;;;;2526613;23;20587;-56
2023/10/02 04:37:48;;;;;;;9.77;6.57;;;;;22.00;100910.00;;;;2539588;23;20221;-56
2023/10/02 04:38:55;;;;;;;8.45;6.30;;;;;22.00;100909.00;;;;2541248;23;20637;-56
2023/10/02 04:41:03;;;;;;;8.93;6.50;;;;;22.00;100896.00;;;;2540658;23;20652;-56
2023/10/02 04:42:12;;;;;;;8.93;6.07;;;;;22.00;100855.00;;;;2525598;23;20591;-56
2023/10/02 04:43:19;;;;;;;9.80;6.32;;;;;22.00;100904.00;;;;2533895;23;20253;-56
2023/10/02 04:44:19;;;;;;;8.73;5.78;;;;;22.00;100909.00;;;;2531321;23;20190;-56
2023/10/02 04:45:25;;;;;;;10.50;6.60;;;;;22.00;100905.00;;;;2540523;23;20330;-56
2023/10/02 04:46:26;;;;;;;10.30;6.90;;;;;22.00;100901.00;;;;2538115;23;20984;-55
2023/10/02 04:47:27;;;;;;;10.33;6.43;;;;;22.00;100908.00;;;;2527714;23;20260;-56
2023/10/02 04:48:38;;;;;;;10.17;6.30;;;;;22.00;100904.00;;;;2543216;23;20190;-56
2023/10/02 04:49:59;;;;;;;8.90;6.20;;;;;22.00;100899.00;;;;2540690;23;20452;-56
2023/10/02 04:51:03;;;;;;;9.02;6.03;;;;;22.00;100902.00;;;;2550267;23;20259;-56
2023/10/02 04:52:04;;;;;;;8.20;5.55;;;;;22.00;100898.00;;;;2537917;23;20377;-55
2023/10/02 04:53:22;;;;;;;8.03;5.70;;;;;22.00;100898.00;;;;2553625;23;20200;-55
2023/10/02 04:54:23;;;;;;;9.48;6.28;;;;;22.00;100908.00;;;;2552855;23;20425;-56
2023/10/02 04:55:24;;;;;;;9.38;6.05;;;;;22.00;100905.00;;;;2553411;23;20197;-56
2023/10/02 04:56:26;;;;;;;9.82;5.45;;;;;21.90;100906.00;;;;2553357;23;20209;-56
2023/10/02 04:57:27;;;;;;;9.48;6.05;;;;;22.00;100905.00;;;;2538406;23;20200;-56
2023/10/02 04:58:27;;;;;;;10.10;6.60;;;;;21.90;100905.00;;;;2553662;23;20190;-56
2023/10/02 04:59:51;;;;;;;9.13;5.87;;;;;22.00;100906.00;;;;2552946;23;20217;-56
2023/10/02 05:02:24;;;;;;;7.90;6.30;;;;;21.90;100907.00;;;;2524437;23;20198;-56
2023/10/02 05:03:27;;;;;;;10.52;6.75;;;;;21.90;100903.00;;;;2540803;23;20194;-56
2023/10/02 05:04:31;;;;;;;10.30;6.03;;;;;21.90;100910.00;;;;2540841;23;20605;-55
2023/10/02 05:05:34;;;;;;;9.90;6.35;;;;;21.90;100900.00;;;;2540827;23;20190;-55
2023/10/02 05:06:52;;;;;;;8.45;5.68;;;;;21.90;100905.00;;;;2539344;23;20226;-61
2023/10/02 05:07:52;;;;;;;9.90;6.47;;;;;21.90;100906.00;;;;2540259;23;20206;-56
2023/10/02 05:09:53;;;;;;;10.37;6.50;;;;;21.90;100902.00;;;;2541491;23;20209;-56
2023/10/02 05:10:56;;;;;;;8.10;5.40;;;;;21.90;100913.00;;;;2540854;23;20202;-56
2023/10/02 05:11:57;;;;;;;9.95;6.05;;;;;21.90;100903.00;;;;2526794;23;20264;-56
2023/10/02 05:12:57;;;;;;;10.53;6.43;;;;;21.90;100912.00;;;;2541253;23;20599;-56
2023/10/02 05:15:07;;;;;;;7.50;5.70;;;;;21.90;100910.00;;;;2541547;23;20206;-55
2023/10/02 05:16:09;;;;;;;8.82;7.00;;;;;21.90;100911.00;;;;2539610;23;20690;-56
2023/10/02 05:18:47;;;;;;;9.18;6.60;;;;;21.90;100918.00;;;;2526837;23;20194;-55
2023/10/02 05:19:57;;;;;;;9.90;6.32;;;;;21.90;100918.00;;;;2540469;23;20198;-56
2023/10/02 05:20:58;;;;;;;8.60;5.70;;;;;21.90;100925.00;;;;2540388;23;20273;-56
2023/10/02 05:21:59;;;;;;;7.93;6.35;;;;;21.90;100916.00;;;;2526274;23;20851;-56
2023/10/02 05:23:03;;;;;;;8.77;5.80;;;;;21.90;100916.00;;;;2540696;23;20206;-56
2023/10/02 05:24:11;;;;;;;8.38;6.00;;;;;21.90;100895.00;;;;2541022;23;20205;-56
2023/10/02 05:25:18;;;;;;;8.35;5.38;;;;;21.90;100915.00;;;;2540096;23;20216;-56
2023/10/02 05:26:32;;;;;;;9.00;6.00;;;;;21.90;100917.00;;;;2540363;23;20229;-56
2023/10/02 05:27:37;;;;;;;9.60;6.40;;;;;21.90;100913.00;;;;2537553;23;20193;-55
2023/10/02 05:28:43;;;;;;;9.85;6.35;;;;;21.90;100921.00;;;;2552420;23;20543;-56
2023/10/02 05:29:43;;;;;;;8.32;5.93;;;;;21.90;100917.00;;;;2540804;23;20285;-56
2023/10/02 05:30:44;;;;;;;9.00;6.50;;;;;21.90;100922.00;;;;2541137;23;20249;-56
2023/10/02 05:31:45;;;;;;;10.02;6.25;;;;;21.90;100920.00;;;;2527106;23;20241;-55
2023/10/02 05:32:45;;;;;;;8.30;5.53;;;;;21.90;100917.00;;;;2539625;23;20201;-59